createdAt,value
2019-03-28T00:00:22.514Z,65.30
2019-03-28T00:01:22.514Z,65.92
2019-03-28T00:02:22.496Z,66.02
2019-03-28T00:03:22.487Z,65.81
2019-03-28T00:04:22.492Z,66.12
2019-03-28T00:05:22.459Z,65.92
2019-03-28T00:06:23.120Z,65.95
2019-03-28T00:07:24.247Z,66.53
2019-03-28T00:08:22.428Z,66.36
2019-03-28T00:09:22.420Z,66.46
2019-03-28T00:10:27.439Z,66.53
2019-03-28T00:11:22.393Z,66.46
2019-03-28T00:12:22.392Z,66.53
2019-03-28T00:13:22.368Z,66.43
2019-03-28T00:14:22.359Z,66.43
2019-03-28T00:15:22.359Z,66.46
2019-03-28T00:16:22.335Z,66.46
2019-03-28T00:17:22.324Z,66.25
2019-03-28T00:18:22.314Z,66.25
2019-03-28T00:19:22.301Z,66.77
2019-03-28T00:20:22.342Z,66.87
2019-03-28T00:21:27.298Z,66.77
2019-03-28T00:22:22.268Z,66.87
2019-03-28T00:23:22.261Z,66.97
2019-03-28T00:24:22.329Z,66.46
2019-03-28T00:25:22.247Z,66.87
2019-03-28T00:26:30.198Z,66.67
2019-03-28T00:27:23.216Z,66.77
2019-03-28T00:28:22.202Z,66.87
2019-03-28T00:29:22.190Z,66.77
2019-03-28T00:30:22.188Z,66.67
2019-03-28T00:31:22.224Z,66.56
2019-03-28T00:32:27.187Z,66.77
2019-03-28T00:33:22.145Z,67.11
2019-03-28T00:34:22.129Z,67.49
2019-03-28T00:35:22.155Z,67.73
2019-03-28T00:36:22.106Z,67.18
2019-03-28T00:37:22.097Z,67.83
2019-03-28T00:38:22.085Z,67.83
2019-03-28T00:39:22.072Z,68.04
2019-03-28T00:40:22.077Z,67.93
2019-03-28T00:41:22.054Z,68.04
2019-03-28T00:42:22.040Z,68.04
2019-03-28T00:43:27.056Z,68.14
2019-03-28T00:44:22.039Z,68.04
2019-03-28T00:45:22.017Z,68.04
2019-03-28T00:46:21.995Z,67.93
2019-03-28T00:47:21.989Z,67.93
2019-03-28T00:48:21.972Z,68.59
2019-03-28T00:49:21.961Z,68.24
2019-03-28T00:50:21.961Z,68.14
2019-03-28T00:51:21.938Z,68.66
2019-03-28T00:52:21.928Z,68.04
2019-03-28T00:53:21.913Z,68.66
2019-03-28T00:54:26.924Z,68.59
2019-03-28T00:55:21.903Z,68.59
2019-03-28T00:56:21.882Z,69.31
2019-03-28T00:57:21.870Z,69.10
2019-03-28T00:58:21.857Z,69.31
2019-03-28T00:59:21.845Z,68.79
2019-03-28T01:00:21.847Z,69.00
2019-03-28T01:01:21.828Z,69.10
2019-03-28T01:02:21.812Z,68.38
2019-03-28T01:03:21.803Z,68.48
2019-03-28T01:04:21.797Z,68.48
2019-03-28T01:05:26.818Z,68.90
2019-03-28T01:06:21.766Z,68.38
2019-03-28T01:07:22.109Z,68.48
2019-03-28T01:08:21.745Z,68.48
2019-03-28T01:09:21.730Z,68.59
2019-03-28T01:10:22.207Z,68.48
2019-03-28T01:11:21.708Z,68.59
2019-03-28T01:12:21.700Z,69.00
2019-03-28T01:13:21.691Z,68.79
2019-03-28T01:14:21.675Z,69.03
2019-03-28T01:15:21.681Z,69.03
2019-03-28T01:16:26.675Z,69.03
2019-03-28T01:17:21.646Z,69.75
2019-03-28T01:18:21.631Z,69.54
2019-03-28T01:19:21.617Z,69.54
2019-03-28T01:20:21.615Z,70.06
2019-03-28T01:21:21.595Z,70.27
2019-03-28T01:22:21.584Z,69.75
2019-03-28T01:23:21.574Z,69.85
2019-03-28T01:24:21.566Z,70.34
2019-03-28T01:25:21.593Z,70.27
2019-03-28T01:26:21.550Z,70.37
2019-03-28T01:27:26.552Z,69.72
2019-03-28T01:28:21.518Z,70.03
2019-03-28T01:29:21.505Z,70.03
2019-03-28T01:30:22.221Z,69.72
2019-03-28T01:31:21.483Z,70.03
2019-03-28T01:32:21.471Z,69.82
2019-03-28T01:33:21.459Z,69.93
2019-03-28T01:34:21.448Z,70.03
2019-03-28T01:35:21.451Z,70.03
2019-03-28T01:36:21.434Z,70.23
2019-03-28T01:37:21.423Z,70.27
2019-03-28T01:38:26.425Z,69.41
2019-03-28T01:39:21.394Z,69.31
2019-03-28T01:40:21.404Z,69.62
2019-03-28T01:41:21.370Z,69.72
2019-03-28T01:42:21.359Z,69.20
2019-03-28T01:43:21.360Z,69.82
2019-03-28T01:44:21.342Z,69.62
2019-03-28T01:45:21.341Z,69.51
2019-03-28T01:46:21.319Z,69.51
2019-03-28T01:47:21.308Z,69.72
2019-03-28T01:48:21.293Z,69.62
2019-03-28T01:49:26.302Z,69.51
2019-03-28T01:50:21.288Z,69.41
2019-03-28T01:51:21.261Z,69.41
2019-03-28T01:52:21.422Z,69.82
2019-03-28T01:53:21.249Z,69.62
2019-03-28T01:54:21.225Z,69.31
2019-03-28T01:55:22.185Z,69.51
2019-03-28T01:56:21.210Z,69.62
2019-03-28T01:57:21.193Z,69.62
2019-03-28T01:58:21.179Z,69.82
2019-03-28T01:59:21.298Z,69.82
2019-03-28T02:00:26.195Z,69.62
2019-03-28T02:01:21.154Z,69.72
2019-03-28T02:02:21.137Z,70.13
2019-03-28T02:03:21.124Z,69.85
2019-03-28T02:04:21.114Z,70.03
2019-03-28T02:05:21.167Z,69.82
2019-03-28T02:06:21.104Z,70.13
2019-03-28T02:07:21.112Z,70.06
2019-03-28T02:08:21.075Z,69.93
2019-03-28T02:09:21.061Z,70.13
2019-03-28T02:10:21.058Z,70.13
2019-03-28T02:11:26.063Z,70.06
2019-03-28T02:12:21.022Z,70.34
2019-03-28T02:13:21.018Z,69.72
2019-03-28T02:14:21.010Z,69.96
2019-03-28T02:15:21.002Z,70.37
2019-03-28T02:16:21.473Z,70.17
2019-03-28T02:17:20.967Z,70.37
2019-03-28T02:18:20.958Z,70.47
2019-03-28T02:19:20.955Z,70.89
2019-03-28T02:20:20.957Z,70.06
2019-03-28T02:21:20.929Z,70.37
2019-03-28T02:22:25.934Z,70.27
2019-03-28T02:23:20.911Z,70.78
2019-03-28T02:24:20.889Z,71.51
2019-03-28T02:25:20.894Z,71.54
2019-03-28T02:26:20.868Z,71.81
2019-03-28T02:27:24.223Z,72.09
2019-03-28T02:28:20.845Z,72.06
2019-03-28T02:29:20.835Z,72.19
2019-03-28T02:30:20.838Z,71.95
2019-03-28T02:31:20.813Z,72.71
2019-03-28T02:32:20.866Z,72.71
2019-03-28T02:33:25.813Z,72.81
2019-03-28T02:34:20.780Z,72.71
2019-03-28T02:35:20.780Z,73.02
2019-03-28T02:36:20.756Z,73.33
2019-03-28T02:37:20.746Z,73.12
2019-03-28T02:38:20.740Z,72.91
2019-03-28T02:39:20.726Z,73.33
2019-03-28T02:40:20.724Z,73.33
2019-03-28T02:41:20.701Z,73.22
2019-03-28T02:42:20.696Z,73.43
2019-03-28T02:43:20.739Z,73.43
2019-03-28T02:44:25.734Z,73.64
2019-03-28T02:45:20.666Z,73.47
2019-03-28T02:46:20.644Z,73.98
2019-03-28T02:47:20.718Z,73.98
2019-03-28T02:48:20.654Z,74.29
2019-03-28T02:49:20.611Z,74.40
2019-03-28T02:50:20.619Z,74.50
2019-03-28T02:51:20.599Z,74.60
2019-03-28T02:52:21.526Z,74.63
2019-03-28T02:53:20.615Z,74.60
2019-03-28T02:54:20.564Z,74.71
2019-03-28T02:55:25.579Z,74.95
2019-03-28T02:56:20.534Z,74.84
2019-03-28T02:57:20.521Z,75.15
2019-03-28T02:58:20.514Z,74.53
2019-03-28T02:59:20.503Z,74.84
2019-03-28T03:00:20.998Z,74.95
2019-03-28T03:01:20.484Z,74.84
2019-03-28T03:02:20.482Z,75.05
2019-03-28T03:03:20.465Z,74.84
2019-03-28T03:04:20.530Z,74.74
2019-03-28T03:05:20.491Z,74.84
2019-03-28T03:06:25.458Z,74.74
2019-03-28T03:07:20.424Z,74.74
2019-03-28T03:08:20.437Z,75.50
2019-03-28T03:09:20.398Z,75.15
2019-03-28T03:10:20.472Z,75.05
2019-03-28T03:11:20.382Z,75.46
2019-03-28T03:12:20.354Z,75.05
2019-03-28T03:13:20.357Z,75.46
2019-03-28T03:14:20.344Z,75.36
2019-03-28T03:15:20.332Z,75.26
2019-03-28T03:16:20.335Z,74.74
2019-03-28T03:17:25.329Z,74.95
2019-03-28T03:18:21.549Z,74.74
2019-03-28T03:19:20.279Z,75.19
2019-03-28T03:20:20.265Z,75.05
2019-03-28T03:21:20.267Z,75.40
2019-03-28T03:22:20.342Z,75.70
2019-03-28T03:23:20.416Z,75.60
2019-03-28T03:24:20.226Z,75.91
2019-03-28T03:25:20.207Z,75.50
2019-03-28T03:26:20.209Z,75.91
2019-03-28T03:27:20.203Z,75.60
2019-03-28T03:28:25.199Z,75.60
2019-03-28T03:29:20.173Z,76.22
2019-03-28T03:30:20.157Z,75.91
2019-03-28T03:31:21.359Z,76.53
2019-03-28T03:32:20.140Z,75.40
2019-03-28T03:33:20.185Z,75.81
2019-03-28T03:34:20.148Z,75.78
2019-03-28T03:35:20.110Z,75.70
2019-03-28T03:36:20.103Z,75.50
2019-03-28T03:37:20.074Z,75.78
2019-03-28T03:38:20.066Z,75.60
2019-03-28T03:39:25.101Z,75.26
2019-03-28T03:40:20.041Z,75.67
2019-03-28T03:41:20.058Z,75.36
2019-03-28T03:42:20.110Z,75.26
2019-03-28T03:43:20.014Z,75.36
2019-03-28T03:44:20.035Z,75.05
2019-03-28T03:45:20.008Z,75.26
2019-03-28T03:46:19.992Z,75.46
2019-03-28T03:47:19.979Z,74.84
2019-03-28T03:48:19.958Z,74.84
2019-03-28T03:49:19.948Z,74.95
2019-03-28T03:50:24.950Z,74.53
2019-03-28T03:51:19.936Z,74.74
2019-03-28T03:52:19.917Z,74.74
2019-03-28T03:53:19.893Z,75.05
2019-03-28T03:54:19.886Z,74.95
2019-03-28T03:55:19.885Z,74.63
2019-03-28T03:56:19.878Z,74.84
2019-03-28T03:57:19.865Z,74.95
2019-03-28T03:58:19.853Z,75.05
2019-03-28T03:59:19.840Z,74.74
2019-03-28T04:00:19.825Z,74.95
2019-03-28T04:01:24.843Z,74.95
2019-03-28T04:02:19.797Z,74.95
2019-03-28T04:03:19.785Z,75.60
2019-03-28T04:04:19.782Z,75.67
2019-03-28T04:05:19.767Z,75.81
2019-03-28T04:06:19.769Z,75.60
2019-03-28T04:07:19.737Z,75.50
2019-03-28T04:08:19.748Z,75.81
2019-03-28T04:09:19.731Z,75.70
2019-03-28T04:10:19.742Z,75.91
2019-03-28T04:11:19.710Z,75.60
2019-03-28T04:12:24.704Z,75.81
2019-03-28T04:13:19.674Z,75.74
2019-03-28T04:14:19.672Z,75.70
2019-03-28T04:15:19.650Z,76.32
2019-03-28T04:16:19.654Z,76.57
2019-03-28T04:17:19.626Z,76.53
2019-03-28T04:18:22.071Z,75.95
2019-03-28T04:19:19.609Z,76.22
2019-03-28T04:20:19.596Z,76.46
2019-03-28T04:21:19.593Z,76.05
2019-03-28T04:22:19.575Z,76.12
2019-03-28T04:23:24.607Z,76.26
2019-03-28T04:24:19.808Z,76.26
2019-03-28T04:25:19.548Z,75.95
2019-03-28T04:26:19.554Z,76.88
2019-03-28T04:27:19.521Z,76.46
2019-03-28T04:28:31.503Z,76.71
2019-03-28T04:29:20.492Z,76.57
2019-03-28T04:30:19.513Z,77.60
2019-03-28T04:31:19.488Z,77.74
2019-03-28T04:32:20.574Z,77.53
2019-03-28T04:33:19.444Z,78.26
2019-03-28T04:34:24.455Z,78.05
2019-03-28T04:35:19.429Z,78.26
2019-03-28T04:36:19.429Z,77.95
2019-03-28T04:37:19.401Z,77.88
2019-03-28T04:38:19.403Z,77.84
2019-03-28T04:39:19.376Z,77.84
2019-03-28T04:40:19.367Z,77.98
2019-03-28T04:41:19.364Z,77.98
2019-03-28T04:42:19.475Z,78.40
2019-03-28T04:43:19.335Z,78.19
2019-03-28T04:44:19.367Z,78.40
2019-03-28T04:45:24.333Z,78.71
2019-03-28T04:46:19.706Z,78.61
2019-03-28T04:47:19.286Z,78.61
2019-03-28T04:48:19.280Z,79.37
2019-03-28T04:49:19.265Z,78.96
2019-03-28T04:50:19.251Z,79.27
2019-03-28T04:51:19.255Z,79.47
2019-03-28T04:52:19.434Z,79.37
2019-03-28T04:53:19.225Z,79.27
2019-03-28T04:54:19.214Z,79.16
2019-03-28T04:55:19.200Z,79.27
2019-03-28T04:56:24.223Z,79.10
2019-03-28T04:57:19.236Z,79.37
2019-03-28T04:58:21.788Z,79.47
2019-03-28T04:59:19.160Z,79.47
2019-03-28T05:00:19.141Z,80.33
2019-03-28T05:01:19.146Z,80.09
2019-03-28T05:02:19.117Z,80.13
2019-03-28T05:03:19.142Z,80.09
2019-03-28T05:04:21.129Z,80.02
2019-03-28T05:05:19.082Z,79.92
2019-03-28T05:06:19.091Z,79.78
2019-03-28T05:07:24.152Z,79.88
2019-03-28T05:08:19.049Z,79.82
2019-03-28T05:09:19.041Z,79.92
2019-03-28T05:10:19.028Z,79.82
2019-03-28T05:11:19.032Z,79.82
2019-03-28T05:12:19.101Z,79.82
2019-03-28T05:13:19.096Z,79.82
2019-03-28T05:14:18.984Z,79.82
2019-03-28T05:15:20.346Z,80.02
2019-03-28T05:16:18.986Z,80.23
2019-03-28T05:17:19.011Z,80.02
2019-03-28T05:18:23.958Z,80.02
2019-03-28T05:19:18.927Z,80.13
2019-03-28T05:20:18.915Z,80.02
2019-03-28T05:21:18.916Z,80.02
2019-03-28T05:22:18.895Z,80.13
2019-03-28T05:23:18.936Z,80.13
2019-03-28T05:24:18.877Z,79.92
2019-03-28T05:25:18.862Z,80.02
2019-03-28T05:26:18.863Z,79.88
2019-03-28T05:27:18.840Z,79.78
2019-03-28T05:28:18.830Z,80.02
2019-03-28T05:29:23.844Z,80.02
2019-03-28T05:30:18.802Z,80.13
2019-03-28T05:31:18.803Z,79.88
2019-03-28T05:32:18.788Z,79.78
2019-03-28T05:33:18.772Z,80.23
2019-03-28T05:34:18.809Z,80.09
2019-03-28T05:35:18.751Z,80.19
2019-03-28T05:36:18.769Z,80.33
2019-03-28T05:37:18.725Z,80.33
2019-03-28T05:38:18.728Z,80.40
2019-03-28T05:39:19.561Z,80.33
2019-03-28T05:40:23.718Z,79.88
2019-03-28T05:41:18.709Z,80.19
2019-03-28T05:42:18.668Z,79.88
2019-03-28T05:43:18.658Z,80.19
2019-03-28T05:44:18.645Z,79.88
2019-03-28T05:45:18.651Z,79.99
2019-03-28T05:46:18.658Z,79.99
2019-03-28T05:47:18.620Z,80.09
2019-03-28T05:48:18.604Z,80.09
2019-03-28T05:49:18.590Z,79.88
2019-03-28T05:50:18.577Z,79.78
2019-03-28T05:51:23.633Z,79.99
2019-03-28T05:52:18.561Z,79.88
2019-03-28T05:53:18.547Z,79.95
2019-03-28T05:54:18.534Z,79.99
2019-03-28T05:55:18.521Z,79.47
2019-03-28T05:56:18.543Z,80.05
2019-03-28T05:57:18.498Z,79.95
2019-03-28T05:58:18.546Z,80.05
2019-03-28T05:59:19.429Z,80.05
2019-03-28T06:00:18.467Z,79.99
2019-03-28T06:01:18.470Z,80.16
2019-03-28T06:02:24.327Z,80.05
2019-03-28T06:03:18.432Z,80.09
2019-03-28T06:04:18.421Z,79.88
2019-03-28T06:05:18.410Z,80.05
2019-03-28T06:06:18.498Z,80.16
2019-03-28T06:07:18.389Z,80.16
2019-03-28T06:08:18.379Z,80.16
2019-03-28T06:09:19.283Z,79.85
2019-03-28T06:10:18.352Z,80.05
2019-03-28T06:11:18.354Z,80.05
2019-03-28T06:12:19.214Z,80.16
2019-03-28T06:13:23.341Z,80.26
2019-03-28T06:14:18.307Z,79.30
2019-03-28T06:15:18.297Z,79.33
2019-03-28T06:16:18.311Z,79.23
2019-03-28T06:17:18.276Z,80.16
2019-03-28T06:18:18.264Z,79.95
2019-03-28T06:19:18.251Z,79.74
2019-03-28T06:20:18.243Z,79.64
2019-03-28T06:21:18.231Z,79.85
2019-03-28T06:22:18.229Z,80.05
2019-03-28T06:23:18.206Z,79.91
2019-03-28T06:24:23.218Z,79.71
2019-03-28T06:25:18.183Z,79.81
2019-03-28T06:26:18.177Z,80.02
2019-03-28T06:27:18.187Z,80.12
2019-03-28T06:28:18.152Z,79.26
2019-03-28T06:29:23.599Z,78.95
2019-03-28T06:30:19.133Z,78.95
2019-03-28T06:31:18.117Z,78.43
2019-03-28T06:32:18.117Z,78.33
2019-03-28T06:33:18.113Z,78.33
2019-03-28T06:34:18.086Z,78.02
2019-03-28T06:35:23.155Z,77.91
2019-03-28T06:36:18.091Z,77.77
2019-03-28T06:37:18.060Z,77.81
2019-03-28T06:38:18.048Z,77.67
2019-03-28T06:39:18.030Z,77.98
2019-03-28T06:40:18.017Z,78.08
2019-03-28T06:41:18.006Z,77.47
2019-03-28T06:42:18.004Z,77.36
2019-03-28T06:43:17.982Z,77.26
2019-03-28T06:44:17.987Z,77.47
2019-03-28T06:45:17.962Z,76.50
2019-03-28T06:46:22.974Z,76.50
2019-03-28T06:47:20.922Z,76.50
2019-03-28T06:48:17.926Z,76.39
2019-03-28T06:49:17.915Z,76.50
2019-03-28T06:50:17.903Z,76.39
2019-03-28T06:51:17.891Z,75.57
2019-03-28T06:52:17.893Z,75.32
2019-03-28T06:53:17.869Z,76.05
2019-03-28T06:54:17.860Z,75.84
2019-03-28T06:55:17.851Z,75.74
2019-03-28T06:56:17.859Z,76.18
2019-03-28T06:57:22.874Z,75.63
2019-03-28T06:58:17.812Z,75.12
2019-03-28T06:59:17.804Z,75.09
2019-03-28T07:00:17.808Z,74.98
2019-03-28T07:01:17.784Z,74.98
2019-03-28T07:02:17.783Z,74.67
2019-03-28T07:03:17.755Z,74.57
2019-03-28T07:04:17.746Z,74.05
2019-03-28T07:05:17.736Z,73.91
2019-03-28T07:06:17.723Z,73.71
2019-03-28T07:07:18.570Z,73.19
2019-03-28T07:08:22.723Z,73.16
2019-03-28T07:09:18.292Z,72.95
2019-03-28T07:10:17.684Z,72.54
2019-03-28T07:11:17.669Z,72.54
2019-03-28T07:12:18.404Z,71.99
2019-03-28T07:13:17.649Z,71.55
2019-03-28T07:14:17.635Z,70.72
2019-03-28T07:15:17.624Z,70.51
2019-03-28T07:16:17.612Z,70.37
2019-03-28T07:17:17.614Z,69.86
2019-03-28T07:18:17.593Z,69.86
2019-03-28T07:19:22.614Z,69.42
2019-03-28T07:20:17.569Z,68.49
2019-03-28T07:21:18.267Z,68.66
2019-03-28T07:22:17.555Z,67.94
2019-03-28T07:23:17.537Z,67.60
2019-03-28T07:24:17.533Z,67.57
2019-03-28T07:25:17.513Z,66.75
2019-03-28T07:26:17.507Z,66.58
2019-03-28T07:27:17.576Z,66.44
2019-03-28T07:28:17.511Z,66.64
2019-03-28T07:29:17.463Z,66.75
2019-03-28T07:30:22.486Z,66.64
2019-03-28T07:31:17.442Z,66.75
2019-03-28T07:32:17.443Z,66.41
2019-03-28T07:33:17.421Z,66.20
2019-03-28T07:34:17.415Z,66.72
2019-03-28T07:35:17.407Z,66.72
2019-03-28T07:36:17.470Z,66.69
2019-03-28T07:37:17.392Z,65.77
2019-03-28T07:38:17.368Z,65.22
2019-03-28T07:39:19.094Z,64.70
2019-03-28T07:40:17.343Z,64.47
2019-03-28T07:41:22.369Z,63.96
2019-03-28T07:42:17.343Z,64.37
2019-03-28T07:43:17.306Z,63.18
2019-03-28T07:44:17.303Z,62.54
2019-03-28T07:45:17.289Z,61.99
2019-03-28T07:46:17.285Z,60.78
2019-03-28T07:47:17.277Z,59.63
2019-03-28T07:48:17.256Z,57.78
2019-03-28T07:49:17.461Z,56.23
2019-03-28T07:50:17.299Z,55.91
2019-03-28T07:51:17.223Z,54.21
2019-03-28T07:52:22.238Z,53.24
2019-03-28T07:53:19.735Z,51.69
2019-03-28T07:54:17.193Z,50.22
2019-03-28T07:55:17.195Z,50.09
2019-03-28T07:56:17.170Z,49.69
2019-03-28T07:57:17.177Z,49.05
2019-03-28T07:58:17.152Z,48.42
2019-03-28T07:59:17.127Z,48.47
2019-03-28T08:00:17.115Z,49.61
2019-03-28T08:01:18.220Z,50.39
2019-03-28T08:02:17.108Z,51.58
2019-03-28T08:03:22.102Z,54.61
2019-03-28T08:04:17.074Z,54.61
2019-03-28T08:05:17.110Z,54.31
2019-03-28T08:06:17.047Z,54.82
2019-03-28T08:07:17.047Z,54.74
2019-03-28T08:08:17.028Z,55.41
2019-03-28T08:09:17.700Z,56.56
2019-03-28T08:10:17.108Z,57.48
2019-03-28T08:11:17.057Z,57.94
2019-03-28T08:12:23.063Z,58.79
2019-03-28T08:13:17.977Z,59.94
2019-03-28T08:14:21.984Z,61.30
2019-03-28T08:15:16.945Z,60.10
2019-03-28T08:16:16.960Z,57.12
2019-03-28T08:17:16.933Z,55.00
2019-03-28T08:18:16.948Z,53.52
2019-03-28T08:19:16.907Z,53.06
2019-03-28T08:20:16.889Z,52.55
2019-03-28T08:21:16.876Z,51.61
2019-03-28T08:22:16.878Z,51.20
2019-03-28T08:23:16.857Z,51.69
2019-03-28T08:24:16.859Z,51.59
2019-03-28T08:25:21.865Z,51.31
2019-03-28T08:26:16.820Z,51.51
2019-03-28T08:27:17.153Z,51.79
2019-03-28T08:28:16.823Z,51.59
2019-03-28T08:29:16.793Z,51.69
2019-03-28T08:30:19.268Z,50.87
2019-03-28T08:31:16.842Z,51.08
2019-03-28T08:32:16.783Z,51.69
2019-03-28T08:33:16.756Z,50.98
2019-03-28T08:34:16.731Z,50.73
2019-03-28T08:35:16.723Z,50.34
2019-03-28T08:36:21.736Z,51.18
2019-03-28T08:37:16.812Z,51.72
2019-03-28T08:38:16.687Z,51.51
2019-03-28T08:39:16.678Z,52.15
2019-03-28T08:40:16.665Z,51.94
2019-03-28T08:41:16.653Z,52.96
2019-03-28T08:42:16.664Z,53.16
2019-03-28T08:43:16.636Z,53.06
2019-03-28T08:44:16.620Z,53.55
2019-03-28T08:45:16.613Z,51.92
2019-03-28T08:46:16.597Z,51.89
2019-03-28T08:47:21.626Z,51.56
2019-03-28T08:48:16.577Z,51.72
2019-03-28T08:49:16.562Z,52.15
2019-03-28T08:50:16.562Z,53.31
2019-03-28T08:51:16.551Z,54.36
2019-03-28T08:52:16.552Z,55.48
2019-03-28T08:53:16.695Z,54.44
2019-03-28T08:54:16.513Z,54.00
2019-03-28T08:55:16.497Z,53.16
2019-03-28T08:56:16.485Z,52.96
2019-03-28T08:57:16.671Z,52.10
2019-03-28T08:58:21.495Z,51.56
2019-03-28T08:59:16.455Z,51.34
2019-03-28T09:00:17.088Z,50.90
2019-03-28T09:01:16.438Z,50.60
2019-03-28T09:02:16.509Z,49.95
2019-03-28T09:03:16.486Z,49.54
2019-03-28T09:04:16.392Z,49.31
2019-03-28T09:05:16.394Z,49.08
2019-03-28T09:06:17.187Z,48.55
2019-03-28T09:07:17.580Z,47.95
2019-03-28T09:08:16.368Z,48.15
2019-03-28T09:09:21.545Z,48.05
2019-03-28T09:10:16.341Z,48.48
2019-03-28T09:11:16.311Z,48.48
2019-03-28T09:12:16.300Z,48.07
2019-03-28T09:13:16.302Z,48.07
2019-03-28T09:14:16.282Z,47.87
2019-03-28T09:15:16.345Z,48.38
2019-03-28T09:16:16.274Z,48.78
2019-03-28T09:17:16.245Z,48.68
2019-03-28T09:18:16.245Z,48.27
2019-03-28T09:19:16.222Z,48.27
2019-03-28T09:20:21.244Z,48.91
2019-03-28T09:21:16.213Z,49.21
2019-03-28T09:22:16.187Z,49.21
2019-03-28T09:23:16.234Z,49.52
2019-03-28T09:24:16.170Z,49.11
2019-03-28T09:25:16.155Z,48.18
2019-03-28T09:26:16.164Z,48.60
2019-03-28T09:27:16.171Z,49.54
2019-03-28T09:28:16.153Z,49.76
2019-03-28T09:29:16.109Z,50.40
2019-03-28T09:30:16.097Z,50.70
2019-03-28T09:31:21.110Z,49.89
2019-03-28T09:32:16.074Z,49.99
2019-03-28T09:33:16.082Z,49.97
2019-03-28T09:34:16.053Z,49.64
2019-03-28T09:35:16.038Z,49.44
2019-03-28T09:36:16.034Z,49.33
2019-03-28T09:37:16.018Z,49.08
2019-03-28T09:38:16.022Z,48.25
2019-03-28T09:39:15.999Z,47.95
2019-03-28T09:40:16.008Z,47.85
2019-03-28T09:41:15.974Z,47.42
2019-03-28T09:42:20.981Z,46.16
2019-03-28T09:43:15.973Z,45.96
2019-03-28T09:44:15.938Z,45.86
2019-03-28T09:45:15.939Z,45.86
2019-03-28T09:46:15.915Z,46.36
2019-03-28T09:47:15.906Z,45.63
2019-03-28T09:48:15.907Z,45.53
2019-03-28T09:49:15.895Z,45.10
2019-03-28T09:50:15.870Z,44.49
2019-03-28T09:51:15.860Z,45.03
2019-03-28T09:52:15.853Z,45.03
2019-03-28T09:53:20.877Z,43.69
2019-03-28T09:54:15.826Z,44.29
2019-03-28T09:55:18.726Z,44.29
2019-03-28T09:56:15.803Z,45.39
2019-03-28T09:57:15.794Z,44.86
2019-03-28T09:58:15.806Z,43.65
2019-03-28T09:59:15.776Z,44.15
2019-03-28T10:00:15.761Z,44.15
2019-03-28T10:01:15.743Z,44.58
2019-03-28T10:02:15.779Z,43.85
2019-03-28T10:03:15.735Z,43.52
2019-03-28T10:04:20.736Z,43.52
2019-03-28T10:05:15.699Z,43.63
2019-03-28T10:06:15.688Z,43.73
2019-03-28T10:07:15.675Z,43.43
2019-03-28T10:08:15.678Z,43.52
2019-03-28T10:09:15.660Z,43.55
2019-03-28T10:10:15.657Z,43.34
2019-03-28T10:11:15.723Z,43.77
2019-03-28T10:12:15.625Z,44.07
2019-03-28T10:13:15.636Z,45.41
2019-03-28T10:14:15.599Z,44.60
2019-03-28T10:15:20.609Z,44.90
2019-03-28T10:16:15.581Z,44.17
2019-03-28T10:17:15.578Z,44.37
2019-03-28T10:18:15.595Z,44.35
2019-03-28T10:19:15.544Z,43.85
2019-03-28T10:20:15.529Z,44.13
2019-03-28T10:21:15.532Z,43.73
2019-03-28T10:22:15.522Z,43.32
2019-03-28T10:23:15.506Z,43.52
2019-03-28T10:24:15.486Z,43.52
2019-03-28T10:25:15.473Z,43.52
2019-03-28T10:26:20.489Z,44.15
2019-03-28T10:27:15.464Z,44.56
2019-03-28T10:28:15.597Z,44.35
2019-03-28T10:29:15.440Z,44.43
2019-03-28T10:30:15.417Z,43.91
2019-03-28T10:31:16.910Z,43.63
2019-03-28T10:32:15.393Z,43.71
2019-03-28T10:33:15.397Z,43.48
2019-03-28T10:34:15.373Z,42.55
2019-03-28T10:35:15.381Z,42.15
2019-03-28T10:36:15.350Z,42.03
2019-03-28T10:37:20.366Z,42.13
2019-03-28T10:38:15.339Z,42.33
2019-03-28T10:39:15.334Z,41.93
2019-03-28T10:40:15.302Z,42.55
2019-03-28T10:41:15.296Z,43.28
2019-03-28T10:42:15.281Z,43.99
2019-03-28T10:43:15.294Z,42.78
2019-03-28T10:44:15.261Z,42.35
2019-03-28T10:45:15.250Z,41.61
2019-03-28T10:46:15.246Z,40.78
2019-03-28T10:47:15.224Z,40.69
2019-03-28T10:48:23.383Z,41.19
2019-03-28T10:49:15.811Z,41.09
2019-03-28T10:50:15.199Z,42.11
2019-03-28T10:51:15.180Z,41.06
2019-03-28T10:52:15.175Z,40.77
2019-03-28T10:53:15.181Z,39.54
2019-03-28T10:54:20.488Z,39.22
2019-03-28T10:55:16.754Z,39.03
2019-03-28T10:56:22.044Z,39.96
2019-03-28T10:57:29.617Z,40.56
2019-03-28T10:58:19.166Z,40.86
2019-03-28T10:59:23.684Z,40.44
2019-03-28T11:00:23.934Z,39.92
2019-03-28T11:01:18.170Z,40.53
2019-03-28T11:02:16.056Z,40.30
2019-03-28T11:03:15.046Z,40.61
2019-03-28T11:04:15.047Z,40.30
2019-03-28T11:05:15.023Z,40.20
2019-03-28T11:06:15.013Z,40.41
2019-03-28T11:07:15.001Z,40.19
2019-03-28T11:08:15.034Z,40.39
2019-03-28T11:09:14.989Z,40.19
2019-03-28T11:10:19.994Z,40.19
2019-03-28T11:11:14.954Z,40.20
2019-03-28T11:12:14.950Z,40.83
2019-03-28T11:13:14.944Z,41.15
2019-03-28T11:14:14.935Z,40.92
2019-03-28T11:15:14.914Z,40.84
2019-03-28T11:16:15.345Z,40.55
2019-03-28T11:17:14.892Z,40.34
2019-03-28T11:18:14.891Z,40.73
2019-03-28T11:19:15.951Z,40.41
2019-03-28T11:20:14.857Z,40.53
2019-03-28T11:21:19.861Z,40.84
2019-03-28T11:22:14.832Z,41.13
2019-03-28T11:23:14.828Z,40.84
2019-03-28T11:24:14.816Z,40.84
2019-03-28T11:25:14.791Z,41.35
2019-03-28T11:26:14.784Z,40.55
2019-03-28T11:27:14.771Z,40.55
2019-03-28T11:28:15.759Z,40.84
2019-03-28T11:29:14.761Z,41.45
2019-03-28T11:30:18.190Z,41.57
2019-03-28T11:31:14.728Z,42.40
2019-03-28T11:32:19.742Z,43.51
2019-03-28T11:33:14.709Z,43.65
2019-03-28T11:34:14.933Z,44.59
2019-03-28T11:35:14.684Z,45.40
2019-03-28T11:36:14.671Z,45.00
2019-03-28T11:37:25.380Z,44.78
2019-03-28T11:38:15.653Z,44.17
2019-03-28T11:39:14.659Z,44.35
2019-03-28T11:40:14.629Z,43.95
2019-03-28T11:41:14.654Z,43.82
2019-03-28T11:42:14.608Z,43.22
2019-03-28T11:43:19.731Z,42.70
2019-03-28T11:44:14.604Z,42.38
2019-03-28T11:45:14.574Z,41.75
2019-03-28T11:46:14.564Z,40.92
2019-03-28T11:47:14.562Z,41.37
2019-03-28T11:48:14.536Z,41.55
2019-03-28T11:49:14.537Z,42.40
2019-03-28T11:50:17.086Z,42.13
2019-03-28T11:51:14.514Z,42.96
2019-03-28T11:52:14.492Z,43.59
2019-03-28T11:53:14.486Z,43.57
2019-03-28T11:54:19.519Z,43.87
2019-03-28T11:55:14.459Z,43.89
2019-03-28T11:56:14.448Z,43.87
2019-03-28T11:57:15.910Z,43.97
2019-03-28T11:58:14.443Z,43.14
2019-03-28T11:59:14.425Z,42.44
2019-03-28T12:00:14.411Z,42.74
2019-03-28T12:01:14.442Z,43.34
2019-03-28T12:02:20.129Z,42.82
2019-03-28T12:03:15.372Z,42.10
2019-03-28T12:04:14.370Z,41.99
2019-03-28T12:05:19.375Z,42.92
2019-03-28T12:06:14.337Z,43.02
2019-03-28T12:07:14.328Z,42.52
2019-03-28T12:08:14.320Z,42.70
2019-03-28T12:09:14.316Z,41.65
2019-03-28T12:10:14.290Z,40.70
2019-03-28T12:11:14.291Z,39.28
2019-03-28T12:12:14.270Z,39.28
2019-03-28T12:13:14.263Z,39.18
2019-03-28T12:14:14.264Z,38.86
2019-03-28T12:15:14.240Z,38.34
2019-03-28T12:16:19.246Z,38.84
2019-03-28T12:17:14.224Z,38.53
2019-03-28T12:18:14.201Z,38.94
2019-03-28T12:19:17.550Z,39.50
2019-03-28T12:20:14.177Z,40.55
2019-03-28T12:21:14.167Z,40.66
2019-03-28T12:22:14.155Z,40.86
2019-03-28T12:23:14.145Z,40.56
2019-03-28T12:24:14.150Z,40.41
2019-03-28T12:25:14.155Z,39.34
2019-03-28T12:26:14.115Z,37.90
2019-03-28T12:27:19.124Z,38.27
2019-03-28T12:28:14.093Z,38.17
2019-03-28T12:29:14.099Z,37.46
2019-03-28T12:30:15.960Z,37.65
2019-03-28T12:31:14.056Z,36.93
2019-03-28T12:32:14.668Z,36.40
2019-03-28T12:33:14.034Z,35.38
2019-03-28T12:34:14.038Z,36.10
2019-03-28T12:35:14.013Z,36.44
2019-03-28T12:36:14.003Z,38.10
2019-03-28T12:37:13.991Z,38.64
2019-03-28T12:38:19.003Z,39.06
2019-03-28T12:39:15.671Z,38.68
2019-03-28T12:40:13.964Z,39.22
2019-03-28T12:41:13.947Z,40.24
2019-03-28T12:42:13.932Z,40.69
2019-03-28T12:43:13.923Z,41.20
2019-03-28T12:44:13.927Z,41.91
2019-03-28T12:45:13.904Z,41.53
2019-03-28T12:46:13.898Z,42.33
2019-03-28T12:47:13.949Z,42.86
2019-03-28T12:48:13.864Z,42.76
2019-03-28T12:49:18.889Z,42.24
2019-03-28T12:50:13.843Z,41.93
2019-03-28T12:51:13.835Z,41.93
2019-03-28T12:52:13.823Z,42.96